sensor_id;sensor_type;location;lat;lon;timestamp;temperature;humidity
12307;DHT22;6216;51.146;7.008;2024-01-10T00:02:19;-1.50;77.70
12307;DHT22;6216;51.146;7.008;2024-01-10T00:04:47;-1.50;78.30
12307;DHT22;6216;51.146;7.008;2024-01-10T00:07:15;-1.50;77.90
12307;DHT22;6216;51.146;7.008;2024-01-10T00:09:43;-1.50;78.40
12307;DHT22;6216;51.146;7.008;2024-01-10T00:12:13;-1.50;77.60
12307;DHT22;6216;51.146;7.008;2024-01-10T00:14:41;-1.60;77.20
12307;DHT22;6216;51.146;7.008;2024-01-10T00:17:09;-1.60;77.30
12307;DHT22;6216;51.146;7.008;2024-01-10T00:19:37;-1.60;76.60
12307;DHT22;6216;51.146;7.008;2024-01-10T00:22:05;-1.70;76.50
12307;DHT22;6216;51.146;7.008;2024-01-10T00:24:33;-1.70;76.90
12307;DHT22;6216;51.146;7.008;2024-01-10T00:27:01;-1.70;76.00
12307;DHT22;6216;51.146;7.008;2024-01-10T00:29:30;-1.70;75.90
12307;DHT22;6216;51.146;7.008;2024-01-10T00:31:58;-1.70;78.30
12307;DHT22;6216;51.146;7.008;2024-01-10T00:34:26;-1.60;79.10
12307;DHT22;6216;51.146;7.008;2024-01-10T00:36:54;-1.60;79.20
12307;DHT22;6216;51.146;7.008;2024-01-10T00:39:22;-1.50;76.90
12307;DHT22;6216;51.146;7.008;2024-01-10T00:41:50;-1.60;76.10
12307;DHT22;6216;51.146;7.008;2024-01-10T00:44:18;-1.60;75.20
12307;DHT22;6216;51.146;7.008;2024-01-10T00:46:47;-1.50;76.30
12307;DHT22;6216;51.146;7.008;2024-01-10T00:49:15;-1.50;75.40
12307;DHT22;6216;51.146;7.008;2024-01-10T00:51:43;-1.50;76.50
12307;DHT22;6216;51.146;7.008;2024-01-10T00:54:11;-1.40;75.30
12307;DHT22;6216;51.146;7.008;2024-01-10T00:56:38;-1.40;76.40
12307;DHT22;6216;51.146;7.008;2024-01-10T00:59:06;-1.40;75.90
12307;DHT22;6216;51.146;7.008;2024-01-10T01:01:34;-1.40;76.00
12307;DHT22;6216;51.146;7.008;2024-01-10T01:04:04;-1.30;76.40
12307;DHT22;6216;51.146;7.008;2024-01-10T01:06:32;-1.40;75.50
12307;DHT22;6216;51.146;7.008;2024-01-10T01:09:00;-1.40;74.80
12307;DHT22;6216;51.146;7.008;2024-01-10T01:11:27;-1.30;75.60
12307;DHT22;6216;51.146;7.008;2024-01-10T01:13:55;-1.40;74.50
12307;DHT22;6216;51.146;7.008;2024-01-10T01:16:23;-1.30;76.60
12307;DHT22;6216;51.146;7.008;2024-01-10T01:18:51;-1.30;77.00
12307;DHT22;6216;51.146;7.008;2024-01-10T01:21:21;-1.30;76.60
12307;DHT22;6216;51.146;7.008;2024-01-10T01:23:48;-1.30;76.50
12307;DHT22;6216;51.146;7.008;2024-01-10T01:26:16;-1.30;76.90
12307;DHT22;6216;51.146;7.008;2024-01-10T01:28:45;-1.20;77.10
12307;DHT22;6216;51.146;7.008;2024-01-10T01:31:13;-1.20;77.10
12307;DHT22;6216;51.146;7.008;2024-01-10T01:33:41;-1.20;77.10
12307;DHT22;6216;51.146;7.008;2024-01-10T01:36:08;-1.20;77.40
12307;DHT22;6216;51.146;7.008;2024-01-10T01:38:38;-1.20;77.40
12307;DHT22;6216;51.146;7.008;2024-01-10T01:41:06;-1.20;77.80
12307;DHT22;6216;51.146;7.008;2024-01-10T01:43:34;-1.30;76.80
12307;DHT22;6216;51.146;7.008;2024-01-10T01:46:03;-1.20;77.50
12307;DHT22;6216;51.146;7.008;2024-01-10T01:48:31;-1.20;77.30
12307;DHT22;6216;51.146;7.008;2024-01-10T01:51:02;-1.20;77.90
12307;DHT22;6216;51.146;7.008;2024-01-10T01:53:31;-1.20;77.70
12307;DHT22;6216;51.146;7.008;2024-01-10T01:56:04;-1.20;77.90
12307;DHT22;6216;51.146;7.008;2024-01-10T01:58:35;-1.20;78.10
12307;DHT22;6216;51.146;7.008;2024-01-10T02:01:04;-1.20;78.30
12307;DHT22;6216;51.146;7.008;2024-01-10T02:03:33;-1.20;78.00
12307;DHT22;6216;51.146;7.008;2024-01-10T02:06:01;-1.20;78.30
12307;DHT22;6216;51.146;7.008;2024-01-10T02:08:33;-1.30;78.00
12307;DHT22;6216;51.146;7.008;2024-01-10T02:11:03;-1.30;78.50
12307;DHT22;6216;51.146;7.008;2024-01-10T02:13:32;-1.30;78.90
12307;DHT22;6216;51.146;7.008;2024-01-10T02:16:01;-1.30;78.70
12307;DHT22;6216;51.146;7.008;2024-01-10T02:18:30;-1.40;78.00
12307;DHT22;6216;51.146;7.008;2024-01-10T02:20:58;-1.50;76.30
12307;DHT22;6216;51.146;7.008;2024-01-10T02:23:26;-1.50;78.00
12307;DHT22;6216;51.146;7.008;2024-01-10T02:25:55;-1.50;78.50
12307;DHT22;6216;51.146;7.008;2024-01-10T02:28:23;-1.50;77.20
12307;DHT22;6216;51.146;7.008;2024-01-10T02:30:52;-1.60;78.00
12307;DHT22;6216;51.146;7.008;2024-01-10T02:33:22;-1.60;78.10
12307;DHT22;6216;51.146;7.008;2024-01-10T02:35:50;-1.60;77.40
12307;DHT22;6216;51.146;7.008;2024-01-10T02:38:18;-1.80;75.70
12307;DHT22;6216;51.146;7.008;2024-01-10T02:40:47;-1.90;75.50
12307;DHT22;6216;51.146;7.008;2024-01-10T02:43:17;-2.00;76.50
12307;DHT22;6216;51.146;7.008;2024-01-10T02:45:45;-1.90;78.50
12307;DHT22;6216;51.146;7.008;2024-01-10T02:48:13;-1.80;79.40
12307;DHT22;6216;51.146;7.008;2024-01-10T02:50:41;-1.80;79.30
12307;DHT22;6216;51.146;7.008;2024-01-10T02:53:09;-1.80;78.40
12307;DHT22;6216;51.146;7.008;2024-01-10T02:55:37;-1.80;78.10
12307;DHT22;6216;51.146;7.008;2024-01-10T02:58:05;-1.80;79.70
12307;DHT22;6216;51.146;7.008;2024-01-10T03:00:34;-1.80;79.80
12307;DHT22;6216;51.146;7.008;2024-01-10T03:03:02;-1.70;80.00
12307;DHT22;6216;51.146;7.008;2024-01-10T03:05:30;-1.70;78.60
12307;DHT22;6216;51.146;7.008;2024-01-10T03:07:58;-1.70;78.70
12307;DHT22;6216;51.146;7.008;2024-01-10T03:10:27;-1.70;79.00
12307;DHT22;6216;51.146;7.008;2024-01-10T03:12:55;-1.60;78.50
12307;DHT22;6216;51.146;7.008;2024-01-10T03:15:23;-1.60;78.40
12307;DHT22;6216;51.146;7.008;2024-01-10T03:17:53;-1.50;79.10
12307;DHT22;6216;51.146;7.008;2024-01-10T03:20:21;-1.50;79.70
12307;DHT22;6216;51.146;7.008;2024-01-10T03:22:48;-1.60;77.90
12307;DHT22;6216;51.146;7.008;2024-01-10T03:25:16;-1.70;77.40
12307;DHT22;6216;51.146;7.008;2024-01-10T03:27:44;-1.70;76.90
12307;DHT22;6216;51.146;7.008;2024-01-10T03:30:12;-1.80;76.00
12307;DHT22;6216;51.146;7.008;2024-01-10T03:32:40;-1.90;77.00
12307;DHT22;6216;51.146;7.008;2024-01-10T03:35:10;-1.80;77.50
12307;DHT22;6216;51.146;7.008;2024-01-10T03:37:38;-1.80;78.70
12307;DHT22;6216;51.146;7.008;2024-01-10T03:40:07;-1.90;76.50
12307;DHT22;6216;51.146;7.008;2024-01-10T03:42:35;-1.90;79.00
12307;DHT22;6216;51.146;7.008;2024-01-10T03:45:03;-1.70;79.80
12307;DHT22;6216;51.146;7.008;2024-01-10T03:47:31;-1.70;79.20
12307;DHT22;6216;51.146;7.008;2024-01-10T03:49:59;-1.70;79.20
12307;DHT22;6216;51.146;7.008;2024-01-10T03:52:29;-1.70;79.70
12307;DHT22;6216;51.146;7.008;2024-01-10T03:54:56;-1.70;79.40
12307;DHT22;6216;51.146;7.008;2024-01-10T03:57:24;-1.80;79.70
12307;DHT22;6216;51.146;7.008;2024-01-10T03:59:52;-1.80;80.30
12307;DHT22;6216;51.146;7.008;2024-01-10T04:02:20;-1.80;80.60
12307;DHT22;6216;51.146;7.008;2024-01-10T04:04:48;-1.80;80.00
12307;DHT22;6216;51.146;7.008;2024-01-10T04:07:16;-1.80;80.40
12307;DHT22;6216;51.146;7.008;2024-01-10T04:09:45;-1.80;79.80
12307;DHT22;6216;51.146;7.008;2024-01-10T04:12:13;-1.80;80.40
12307;DHT22;6216;51.146;7.008;2024-01-10T04:14:41;-1.80;80.00
12307;DHT22;6216;51.146;7.008;2024-01-10T04:17:09;-1.90;80.60
12307;DHT22;6216;51.146;7.008;2024-01-10T04:19:37;-1.90;81.00
12307;DHT22;6216;51.146;7.008;2024-01-10T04:22:05;-2.00;81.40
12307;DHT22;6216;51.146;7.008;2024-01-10T04:24:33;-2.00;82.10
12307;DHT22;6216;51.146;7.008;2024-01-10T04:27:03;-1.90;82.50
12307;DHT22;6216;51.146;7.008;2024-01-10T04:29:34;-1.90;82.40
12307;DHT22;6216;51.146;7.008;2024-01-10T04:32:02;-1.90;82.10
12307;DHT22;6216;51.146;7.008;2024-01-10T04:34:30;-1.90;82.00
12307;DHT22;6216;51.146;7.008;2024-01-10T04:36:58;-1.90;82.00
12307;DHT22;6216;51.146;7.008;2024-01-10T04:39:26;-1.90;82.10
12307;DHT22;6216;51.146;7.008;2024-01-10T04:41:54;-1.90;82.80
12307;DHT22;6216;51.146;7.008;2024-01-10T04:44:23;-1.90;82.70
12307;DHT22;6216;51.146;7.008;2024-01-10T04:46:51;-1.90;82.20
12307;DHT22;6216;51.146;7.008;2024-01-10T04:49:19;-1.90;82.80
12307;DHT22;6216;51.146;7.008;2024-01-10T04:51:47;-1.90;82.40
12307;DHT22;6216;51.146;7.008;2024-01-10T04:54:15;-2.00;82.60
12307;DHT22;6216;51.146;7.008;2024-01-10T04:56:43;-2.00;81.60
12307;DHT22;6216;51.146;7.008;2024-01-10T04:59:11;-2.20;80.60
12307;DHT22;6216;51.146;7.008;2024-01-10T05:01:40;-2.30;81.10
12307;DHT22;6216;51.146;7.008;2024-01-10T05:04:08;-2.30;82.20
12307;DHT22;6216;51.146;7.008;2024-01-10T05:06:36;-2.30;81.80
12307;DHT22;6216;51.146;7.008;2024-01-10T05:09:04;-2.40;83.70
12307;DHT22;6216;51.146;7.008;2024-01-10T05:11:33;-2.40;82.80
12307;DHT22;6216;51.146;7.008;2024-01-10T05:14:02;-2.50;82.20
12307;DHT22;6216;51.146;7.008;2024-01-10T05:16:30;-2.50;83.70
12307;DHT22;6216;51.146;7.008;2024-01-10T05:19:02;-2.40;86.00
12307;DHT22;6216;51.146;7.008;2024-01-10T05:21:31;-2.30;84.10
12307;DHT22;6216;51.146;7.008;2024-01-10T05:23:59;-2.30;84.80
12307;DHT22;6216;51.146;7.008;2024-01-10T05:26:27;-2.30;83.50
12307;DHT22;6216;51.146;7.008;2024-01-10T05:28:56;-2.20;84.80
12307;DHT22;6216;51.146;7.008;2024-01-10T05:31:24;-2.30;83.20
12307;DHT22;6216;51.146;7.008;2024-01-10T05:33:51;-2.20;84.40
12307;DHT22;6216;51.146;7.008;2024-01-10T05:36:23;-2.10;84.70
12307;DHT22;6216;51.146;7.008;2024-01-10T05:38:51;-2.10;82.50
12307;DHT22;6216;51.146;7.008;2024-01-10T05:41:19;-2.20;83.10
12307;DHT22;6216;51.146;7.008;2024-01-10T05:43:47;-2.20;83.20
12307;DHT22;6216;51.146;7.008;2024-01-10T05:46:15;-2.10;84.90
12307;DHT22;6216;51.146;7.008;2024-01-10T05:48:44;-2.20;82.80
12307;DHT22;6216;51.146;7.008;2024-01-10T05:51:13;-2.20;83.10
12307;DHT22;6216;51.146;7.008;2024-01-10T05:53:42;-2.30;81.90
12307;DHT22;6216;51.146;7.008;2024-01-10T05:56:10;-2.30;83.20
12307;DHT22;6216;51.146;7.008;2024-01-10T05:58:39;-2.40;83.10
12307;DHT22;6216;51.146;7.008;2024-01-10T06:01:07;-2.50;82.70
12307;DHT22;6216;51.146;7.008;2024-01-10T06:03:37;-2.50;83.90
12307;DHT22;6216;51.146;7.008;2024-01-10T06:06:05;-2.50;85.20
12307;DHT22;6216;51.146;7.008;2024-01-10T06:08:33;-2.40;85.90
12307;DHT22;6216;51.146;7.008;2024-01-10T06:11:04;-2.40;85.80
12307;DHT22;6216;51.146;7.008;2024-01-10T06:13:35;-2.40;85.90
12307;DHT22;6216;51.146;7.008;2024-01-10T06:16:19;-2.40;86.20
12307;DHT22;6216;51.146;7.008;2024-01-10T06:18:47;-2.40;85.00
12307;DHT22;6216;51.146;7.008;2024-01-10T06:21:15;-2.40;86.40
12307;DHT22;6216;51.146;7.008;2024-01-10T06:23:43;-2.40;86.60
12307;DHT22;6216;51.146;7.008;2024-01-10T06:26:13;-2.40;86.00
12307;DHT22;6216;51.146;7.008;2024-01-10T06:28:41;-2.40;86.30
12307;DHT22;6216;51.146;7.008;2024-01-10T06:31:09;-2.40;87.30
12307;DHT22;6216;51.146;7.008;2024-01-10T06:33:38;-2.40;85.60
12307;DHT22;6216;51.146;7.008;2024-01-10T06:36:07;-2.50;86.50
12307;DHT22;6216;51.146;7.008;2024-01-10T06:38:35;-2.40;88.00
12307;DHT22;6216;51.146;7.008;2024-01-10T06:41:07;-2.50;85.40
12307;DHT22;6216;51.146;7.008;2024-01-10T06:43:37;-2.50;86.00
12307;DHT22;6216;51.146;7.008;2024-01-10T06:46:06;-2.50;86.40
12307;DHT22;6216;51.146;7.008;2024-01-10T06:48:34;-2.40;87.90
12307;DHT22;6216;51.146;7.008;2024-01-10T06:51:09;-2.30;87.50
12307;DHT22;6216;51.146;7.008;2024-01-10T06:53:38;-2.40;85.90
12307;DHT22;6216;51.146;7.008;2024-01-10T06:56:07;-2.30;87.60
12307;DHT22;6216;51.146;7.008;2024-01-10T06:58:38;-2.30;87.40
12307;DHT22;6216;51.146;7.008;2024-01-10T07:01:11;-2.20;87.40
12307;DHT22;6216;51.146;7.008;2024-01-10T07:03:40;-2.20;87.10
12307;DHT22;6216;51.146;7.008;2024-01-10T07:06:09;-2.10;86.90
12307;DHT22;6216;51.146;7.008;2024-01-10T07:08:37;-2.10;86.90
12307;DHT22;6216;51.146;7.008;2024-01-10T07:11:05;-2.10;86.90
12307;DHT22;6216;51.146;7.008;2024-01-10T07:13:33;-2.10;87.10
12307;DHT22;6216;51.146;7.008;2024-01-10T07:16:02;-2.10;87.10
12307;DHT22;6216;51.146;7.008;2024-01-10T07:18:30;-2.10;86.60
12307;DHT22;6216;51.146;7.008;2024-01-10T07:20:58;-2.10;86.60
12307;DHT22;6216;51.146;7.008;2024-01-10T07:23:26;-2.10;86.60
12307;DHT22;6216;51.146;7.008;2024-01-10T07:25:55;-2.10;86.10
12307;DHT22;6216;51.146;7.008;2024-01-10T07:28:23;-2.00;86.00
12307;DHT22;6216;51.146;7.008;2024-01-10T07:30:51;-2.10;85.80
12307;DHT22;6216;51.146;7.008;2024-01-10T07:33:20;-2.10;85.60
12307;DHT22;6216;51.146;7.008;2024-01-10T07:35:49;-2.10;86.30
12307;DHT22;6216;51.146;7.008;2024-01-10T07:38:17;-2.10;86.30
12307;DHT22;6216;51.146;7.008;2024-01-10T07:40:45;-2.10;86.40
12307;DHT22;6216;51.146;7.008;2024-01-10T07:43:14;-2.10;86.50
12307;DHT22;6216;51.146;7.008;2024-01-10T07:45:42;-2.00;87.00
12307;DHT22;6216;51.146;7.008;2024-01-10T07:48:09;-2.00;86.20
12307;DHT22;6216;51.146;7.008;2024-01-10T07:50:39;-2.00;90.20
12307;DHT22;6216;51.146;7.008;2024-01-10T07:53:07;-2.00;89.50
12307;DHT22;6216;51.146;7.008;2024-01-10T07:55:35;-1.80;89.30
12307;DHT22;6216;51.146;7.008;2024-01-10T07:58:03;-1.70;87.50
12307;DHT22;6216;51.146;7.008;2024-01-10T08:00:32;-1.70;85.30
12307;DHT22;6216;51.146;7.008;2024-01-10T08:03:00;-1.70;84.10
12307;DHT22;6216;51.146;7.008;2024-01-10T08:05:28;-1.70;84.90
12307;DHT22;6216;51.146;7.008;2024-01-10T08:07:57;-1.60;84.70
12307;DHT22;6216;51.146;7.008;2024-01-10T08:10:26;-1.60;84.10
12307;DHT22;6216;51.146;7.008;2024-01-10T08:12:55;-1.60;83.80
12307;DHT22;6216;51.146;7.008;2024-01-10T08:15:23;-1.50;83.00
12307;DHT22;6216;51.146;7.008;2024-01-10T08:17:51;-1.40;82.20
12307;DHT22;6216;51.146;7.008;2024-01-10T08:20:19;-1.30;82.00
12307;DHT22;6216;51.146;7.008;2024-01-10T08:22:48;-1.10;81.20
12307;DHT22;6216;51.146;7.008;2024-01-10T08:25:17;-1.00;81.40
12307;DHT22;6216;51.146;7.008;2024-01-10T08:27:45;-0.90;81.10
12307;DHT22;6216;51.146;7.008;2024-01-10T08:30:12;-0.80;79.60
12307;DHT22;6216;51.146;7.008;2024-01-10T08:32:40;-0.60;80.50
12307;DHT22;6216;51.146;7.008;2024-01-10T08:35:08;-0.30;80.20
12307;DHT22;6216;51.146;7.008;2024-01-10T08:37:36;0.00;80.90
12307;DHT22;6216;51.146;7.008;2024-01-10T08:40:08;0.30;80.90
12307;DHT22;6216;51.146;7.008;2024-01-10T08:42:40;0.70;80.00
12307;DHT22;6216;51.146;7.008;2024-01-10T08:45:09;1.10;79.20
12307;DHT22;6216;51.146;7.008;2024-01-10T08:47:38;1.50;78.80
12307;DHT22;6216;51.146;7.008;2024-01-10T08:50:06;2.10;77.90
12307;DHT22;6216;51.146;7.008;2024-01-10T08:52:36;2.80;76.50
12307;DHT22;6216;51.146;7.008;2024-01-10T08:55:05;3.50;73.00
12307;DHT22;6216;51.146;7.008;2024-01-10T08:57:41;4.40;71.40
12307;DHT22;6216;51.146;7.008;2024-01-10T09:00:10;5.10;68.30
12307;DHT22;6216;51.146;7.008;2024-01-10T09:02:39;5.80;66.70
12307;DHT22;6216;51.146;7.008;2024-01-10T09:05:07;6.40;64.40
12307;DHT22;6216;51.146;7.008;2024-01-10T09:07:37;6.60;61.00
12307;DHT22;6216;51.146;7.008;2024-01-10T09:10:06;6.70;60.80
12307;DHT22;6216;51.146;7.008;2024-01-10T09:12:35;6.60;62.50
12307;DHT22;6216;51.146;7.008;2024-01-10T09:15:05;6.70;62.20
12307;DHT22;6216;51.146;7.008;2024-01-10T09:17:35;6.60;64.40
12307;DHT22;6216;51.146;7.008;2024-01-10T09:20:03;6.50;64.80
12307;DHT22;6216;51.146;7.008;2024-01-10T09:22:31;6.30;61.70
12307;DHT22;6216;51.146;7.008;2024-01-10T09:24:59;5.90;61.40
12307;DHT22;6216;51.146;7.008;2024-01-10T09:27:30;5.40;63.50
12307;DHT22;6216;51.146;7.008;2024-01-10T09:29:58;5.00;66.80
12307;DHT22;6216;51.146;7.008;2024-01-10T09:32:29;5.00;68.10
12307;DHT22;6216;51.146;7.008;2024-01-10T09:34:57;5.10;68.80
12307;DHT22;6216;51.146;7.008;2024-01-10T09:37:25;5.10;69.10
12307;DHT22;6216;51.146;7.008;2024-01-10T09:39:53;5.40;70.20
12307;DHT22;6216;51.146;7.008;2024-01-10T09:42:21;5.80;69.40
12307;DHT22;6216;51.146;7.008;2024-01-10T09:44:52;6.30;69.40
12307;DHT22;6216;51.146;7.008;2024-01-10T09:47:20;7.20;69.70
12307;DHT22;6216;51.146;7.008;2024-01-10T09:49:50;8.40;67.90
12307;DHT22;6216;51.146;7.008;2024-01-10T09:52:24;10.00;65.50
12307;DHT22;6216;51.146;7.008;2024-01-10T09:54:54;11.50;59.80
12307;DHT22;6216;51.146;7.008;2024-01-10T09:57:23;12.90;55.00
12307;DHT22;6216;51.146;7.008;2024-01-10T09:59:52;14.00;54.00
12307;DHT22;6216;51.146;7.008;2024-01-10T10:02:21;14.90;50.90
12307;DHT22;6216;51.146;7.008;2024-01-10T10:04:56;16.20;47.90
12307;DHT22;6216;51.146;7.008;2024-01-10T10:07:26;17.10;45.20
12307;DHT22;6216;51.146;7.008;2024-01-10T10:09:54;17.90;42.30
12307;DHT22;6216;51.146;7.008;2024-01-10T10:12:26;18.50;40.30
12307;DHT22;6216;51.146;7.008;2024-01-10T10:15:11;19.30;38.20
12307;DHT22;6216;51.146;7.008;2024-01-10T10:17:40;19.60;37.70
12307;DHT22;6216;51.146;7.008;2024-01-10T10:20:20;20.50;33.60
12307;DHT22;6216;51.146;7.008;2024-01-10T10:22:59;21.50;32.10
12307;DHT22;6216;51.146;7.008;2024-01-10T10:25:29;21.30;32.00
12307;DHT22;6216;51.146;7.008;2024-01-10T10:27:59;21.40;30.10
12307;DHT22;6216;51.146;7.008;2024-01-10T10:30:27;21.80;28.90
12307;DHT22;6216;51.146;7.008;2024-01-10T10:32:56;22.30;27.80
12307;DHT22;6216;51.146;7.008;2024-01-10T10:35:25;22.30;27.30
12307;DHT22;6216;51.146;7.008;2024-01-10T10:38:07;22.40;27.20
12307;DHT22;6216;51.146;7.008;2024-01-10T10:40:37;22.30;26.50
12307;DHT22;6216;51.146;7.008;2024-01-10T10:43:05;22.00;27.60
12307;DHT22;6216;51.146;7.008;2024-01-10T10:45:35;21.70;26.20
12307;DHT22;6216;51.146;7.008;2024-01-10T10:48:03;21.40;26.90
12307;DHT22;6216;51.146;7.008;2024-01-10T10:50:34;21.80;26.70
12307;DHT22;6216;51.146;7.008;2024-01-10T10:53:04;21.40;26.00
12307;DHT22;6216;51.146;7.008;2024-01-10T10:55:32;21.10;26.10
12307;DHT22;6216;51.146;7.008;2024-01-10T10:58:03;21.20;26.20
12307;DHT22;6216;51.146;7.008;2024-01-10T11:00:38;20.80;26.60
12307;DHT22;6216;51.146;7.008;2024-01-10T11:03:10;20.30;27.40
12307;DHT22;6216;51.146;7.008;2024-01-10T11:05:41;20.10;27.60
12307;DHT22;6216;51.146;7.008;2024-01-10T11:08:11;20.60;27.90
12307;DHT22;6216;51.146;7.008;2024-01-10T11:10:42;21.00;28.20
12307;DHT22;6216;51.146;7.008;2024-01-10T11:13:25;21.50;26.90
12307;DHT22;6216;51.146;7.008;2024-01-10T11:19:10;22.10;26.00
12307;DHT22;6216;51.146;7.008;2024-01-10T11:21:53;22.30;25.90
12307;DHT22;6216;51.146;7.008;2024-01-10T11:24:24;22.20;25.50
12307;DHT22;6216;51.146;7.008;2024-01-10T11:27:06;22.20;25.40
12307;DHT22;6216;51.146;7.008;2024-01-10T11:29:37;21.60;25.50
12307;DHT22;6216;51.146;7.008;2024-01-10T11:32:06;21.30;25.80
12307;DHT22;6216;51.146;7.008;2024-01-10T11:34:36;20.90;25.80
12307;DHT22;6216;51.146;7.008;2024-01-10T11:37:12;19.40;26.50
12307;DHT22;6216;51.146;7.008;2024-01-10T11:39:41;17.30;27.10
12307;DHT22;6216;51.146;7.008;2024-01-10T11:42:10;15.90;28.30
12307;DHT22;6216;51.146;7.008;2024-01-10T11:44:47;14.50;28.90
12307;DHT22;6216;51.146;7.008;2024-01-10T11:47:16;13.10;30.60
12307;DHT22;6216;51.146;7.008;2024-01-10T11:49:56;12.00;32.40
12307;DHT22;6216;51.146;7.008;2024-01-10T11:52:32;11.30;34.70
12307;DHT22;6216;51.146;7.008;2024-01-10T11:55:01;11.10;36.00
12307;DHT22;6216;51.146;7.008;2024-01-10T11:57:30;10.90;36.20
12307;DHT22;6216;51.146;7.008;2024-01-10T11:59:59;10.30;36.40
12307;DHT22;6216;51.146;7.008;2024-01-10T12:02:29;9.80;37.40
12307;DHT22;6216;51.146;7.008;2024-01-10T12:04:58;9.10;38.40
12307;DHT22;6216;51.146;7.008;2024-01-10T12:07:27;8.50;39.60
12307;DHT22;6216;51.146;7.008;2024-01-10T12:09:55;7.50;44.50
12307;DHT22;6216;51.146;7.008;2024-01-10T12:12:24;6.30;46.90
12307;DHT22;6216;51.146;7.008;2024-01-10T12:14:53;6.00;46.70
12307;DHT22;6216;51.146;7.008;2024-01-10T12:17:21;6.00;46.90
12307;DHT22;6216;51.146;7.008;2024-01-10T12:19:49;6.00;46.20
12307;DHT22;6216;51.146;7.008;2024-01-10T12:22:17;6.10;47.30
12307;DHT22;6216;51.146;7.008;2024-01-10T12:24:49;6.10;46.80
12307;DHT22;6216;51.146;7.008;2024-01-10T12:27:18;6.10;47.20
12307;DHT22;6216;51.146;7.008;2024-01-10T12:29:48;6.20;47.60
12307;DHT22;6216;51.146;7.008;2024-01-10T12:32:18;6.30;47.60
12307;DHT22;6216;51.146;7.008;2024-01-10T12:34:46;6.10;47.80
12307;DHT22;6216;51.146;7.008;2024-01-10T12:37:14;6.10;48.20
12307;DHT22;6216;51.146;7.008;2024-01-10T12:39:43;6.00;48.60
12307;DHT22;6216;51.146;7.008;2024-01-10T12:42:12;5.90;49.10
12307;DHT22;6216;51.146;7.008;2024-01-10T12:44:43;5.70;49.10
12307;DHT22;6216;51.146;7.008;2024-01-10T12:47:18;5.60;49.50
12307;DHT22;6216;51.146;7.008;2024-01-10T12:49:47;5.60;49.90
12307;DHT22;6216;51.146;7.008;2024-01-10T12:52:15;5.50;50.00
12307;DHT22;6216;51.146;7.008;2024-01-10T12:54:48;5.40;50.10
12307;DHT22;6216;51.146;7.008;2024-01-10T12:57:17;5.30;51.10
12307;DHT22;6216;51.146;7.008;2024-01-10T12:59:45;5.20;51.60
12307;DHT22;6216;51.146;7.008;2024-01-10T13:02:13;5.20;51.60
12307;DHT22;6216;51.146;7.008;2024-01-10T13:04:41;5.00;52.10
12307;DHT22;6216;51.146;7.008;2024-01-10T13:07:09;4.70;52.90
12307;DHT22;6216;51.146;7.008;2024-01-10T13:09:37;4.50;54.00
12307;DHT22;6216;51.146;7.008;2024-01-10T13:12:05;4.50;54.60
12307;DHT22;6216;51.146;7.008;2024-01-10T13:14:35;4.60;54.90
12307;DHT22;6216;51.146;7.008;2024-01-10T13:17:03;4.60;54.80
12307;DHT22;6216;51.146;7.008;2024-01-10T13:19:31;4.80;55.70
12307;DHT22;6216;51.146;7.008;2024-01-10T13:21:59;5.00;55.20
12307;DHT22;6216;51.146;7.008;2024-01-10T13:24:30;5.10;55.00
12307;DHT22;6216;51.146;7.008;2024-01-10T13:26:58;5.10;55.40
12307;DHT22;6216;51.146;7.008;2024-01-10T13:29:26;5.00;55.30
12307;DHT22;6216;51.146;7.008;2024-01-10T13:31:55;5.00;55.80
12307;DHT22;6216;51.146;7.008;2024-01-10T13:34:24;4.90;56.00
12307;DHT22;6216;51.146;7.008;2024-01-10T13:36:53;4.80;56.80
12307;DHT22;6216;51.146;7.008;2024-01-10T13:39:20;4.60;57.80
12307;DHT22;6216;51.146;7.008;2024-01-10T13:41:48;4.50;58.30
12307;DHT22;6216;51.146;7.008;2024-01-10T13:44:16;4.30;58.40
12307;DHT22;6216;51.146;7.008;2024-01-10T13:46:44;4.30;59.30
12307;DHT22;6216;51.146;7.008;2024-01-10T13:49:15;4.20;59.80
12307;DHT22;6216;51.146;7.008;2024-01-10T13:51:44;4.20;59.00
12307;DHT22;6216;51.146;7.008;2024-01-10T13:54:12;4.20;58.20
12307;DHT22;6216;51.146;7.008;2024-01-10T13:56:40;4.10;58.60
12307;DHT22;6216;51.146;7.008;2024-01-10T13:59:09;4.00;60.20
12307;DHT22;6216;51.146;7.008;2024-01-10T14:01:37;3.80;61.00
12307;DHT22;6216;51.146;7.008;2024-01-10T14:04:05;3.80;61.70
12307;DHT22;6216;51.146;7.008;2024-01-10T14:06:34;3.90;62.20
12307;DHT22;6216;51.146;7.008;2024-01-10T14:09:02;4.00;62.10
12307;DHT22;6216;51.146;7.008;2024-01-10T14:11:30;4.00;62.20
12307;DHT22;6216;51.146;7.008;2024-01-10T14:13:59;4.00;62.40
12307;DHT22;6216;51.146;7.008;2024-01-10T14:16:29;3.90;62.70
12307;DHT22;6216;51.146;7.008;2024-01-10T14:18:56;3.90;62.80
12307;DHT22;6216;51.146;7.008;2024-01-10T14:21:24;4.00;62.50
12307;DHT22;6216;51.146;7.008;2024-01-10T14:23:54;4.10;62.20
12307;DHT22;6216;51.146;7.008;2024-01-10T14:26:22;4.20;62.30
12307;DHT22;6216;51.146;7.008;2024-01-10T14:28:51;4.20;62.50
12307;DHT22;6216;51.146;7.008;2024-01-10T14:31:22;4.20;62.40
12307;DHT22;6216;51.146;7.008;2024-01-10T14:34:04;4.20;62.70
12307;DHT22;6216;51.146;7.008;2024-01-10T14:36:37;4.10;62.40
12307;DHT22;6216;51.146;7.008;2024-01-10T14:39:06;4.10;62.20
12307;DHT22;6216;51.146;7.008;2024-01-10T14:41:34;4.00;63.40
12307;DHT22;6216;51.146;7.008;2024-01-10T14:44:03;3.90;63.80
12307;DHT22;6216;51.146;7.008;2024-01-10T14:46:31;3.90;63.40
12307;DHT22;6216;51.146;7.008;2024-01-10T14:48:59;3.80;63.00
12307;DHT22;6216;51.146;7.008;2024-01-10T14:51:27;3.80;63.00
12307;DHT22;6216;51.146;7.008;2024-01-10T14:53:55;3.60;63.80
12307;DHT22;6216;51.146;7.008;2024-01-10T14:56:25;3.70;63.30
12307;DHT22;6216;51.146;7.008;2024-01-10T14:58:53;3.60;62.90
12307;DHT22;6216;51.146;7.008;2024-01-10T15:01:21;3.60;64.30
12307;DHT22;6216;51.146;7.008;2024-01-10T15:03:49;3.50;64.60
12307;DHT22;6216;51.146;7.008;2024-01-10T15:06:19;3.40;65.00
12307;DHT22;6216;51.146;7.008;2024-01-10T15:08:48;3.30;64.70
12307;DHT22;6216;51.146;7.008;2024-01-10T15:11:16;3.20;65.60
12307;DHT22;6216;51.146;7.008;2024-01-10T15:13:47;3.20;65.30
12307;DHT22;6216;51.146;7.008;2024-01-10T15:16:16;3.10;66.30
12307;DHT22;6216;51.146;7.008;2024-01-10T15:18:43;3.10;65.80
12307;DHT22;6216;51.146;7.008;2024-01-10T15:21:12;3.00;67.20
12307;DHT22;6216;51.146;7.008;2024-01-10T15:23:40;3.00;67.20
12307;DHT22;6216;51.146;7.008;2024-01-10T15:26:08;3.00;68.60
12307;DHT22;6216;51.146;7.008;2024-01-10T15:28:36;3.00;68.50
12307;DHT22;6216;51.146;7.008;2024-01-10T15:31:06;3.00;68.70
12307;DHT22;6216;51.146;7.008;2024-01-10T15:33:34;3.00;68.80
12307;DHT22;6216;51.146;7.008;2024-01-10T15:36:02;2.90;69.20
12307;DHT22;6216;51.146;7.008;2024-01-10T15:38:31;2.90;70.00
12307;DHT22;6216;51.146;7.008;2024-01-10T15:40:58;2.80;70.20
12307;DHT22;6216;51.146;7.008;2024-01-10T15:43:28;2.70;71.00
12307;DHT22;6216;51.146;7.008;2024-01-10T15:45:56;2.70;72.00
12307;DHT22;6216;51.146;7.008;2024-01-10T15:48:25;2.80;72.50
12307;DHT22;6216;51.146;7.008;2024-01-10T15:50:55;2.80;72.50
12307;DHT22;6216;51.146;7.008;2024-01-10T15:53:23;2.80;72.40
12307;DHT22;6216;51.146;7.008;2024-01-10T15:55:51;2.80;72.80
12307;DHT22;6216;51.146;7.008;2024-01-10T15:58:19;2.70;73.30
12307;DHT22;6216;51.146;7.008;2024-01-10T16:00:47;2.70;73.50
12307;DHT22;6216;51.146;7.008;2024-01-10T16:03:15;2.60;73.60
12307;DHT22;6216;51.146;7.008;2024-01-10T16:05:45;2.50;75.00
12307;DHT22;6216;51.146;7.008;2024-01-10T16:08:15;2.50;75.60